Time;durP1;ratioP1;P1;durP2;ratioP2;P2;SDS_P1;SDS_P2;PMS_P1;PMS_P2;Temp;Humidity;BMP_temperature;BMP_pressure;BME280_temperature;BME280_humidity;BME280_pressure;Samples;Min_cycle;Max_cycle;Signal;HPM_P1;HPM_P2
2023/08/28 00:01:48;;;;;;;3.10;2.08;;;;;;;-146.27;94.94;82589.09;5049194;28;20045;-67
2023/08/28 00:04:13;;;;;;;3.40;2.13;;;;;;;-146.27;95.15;82617.22;5048138;28;20090;-67
2023/08/28 00:06:39;;;;;;;3.00;2.35;;;;;;;-146.27;94.83;82581.06;5050068;28;20032;-68
2023/08/28 00:09:04;;;;;;;5.88;2.90;;;;;;;-146.27;95.49;82615.22;5047297;28;20040;-68
2023/08/28 00:11:30;;;;;;;8.60;2.50;;;;;;;-146.27;96.23;82599.13;5047256;28;20018;-68
2023/08/28 00:13:55;;;;;;;4.82;2.72;;;;;;;-146.27;95.76;82567.00;5041378;28;20041;-67
2023/08/28 00:16:20;;;;;;;9.10;2.75;;;;;;;-146.27;95.73;82603.16;5041528;28;20366;-69
2023/08/28 00:18:46;;;;;;;3.05;2.60;;;;;;;-146.27;95.42;82605.16;5034186;28;20120;-69
2023/08/28 00:21:11;;;;;;;2.70;2.50;;;;;;;-146.27;95.64;82601.16;5049743;28;20025;-68
2023/08/28 00:23:36;;;;;;;2.92;2.30;;;;;;;-146.27;95.27;82607.16;5045209;28;20542;-69
2023/08/28 00:26:02;;;;;;;5.20;2.30;;;;;;;-146.27;94.62;82575.03;5043315;28;20025;-68
2023/08/28 00:28:27;;;;;;;3.53;2.38;;;;;;;-146.27;95.36;82585.06;5041302;28;20059;-68
2023/08/28 00:30:53;;;;;;;5.95;2.05;;;;;;;-146.27;94.61;82575.03;5049497;28;20029;-68
2023/08/28 00:33:18;;;;;;;3.53;2.40;;;;;;;-146.27;94.64;82593.09;5044658;28;20029;-69
2023/08/28 00:35:43;;;;;;;7.45;2.28;;;;;;;-146.27;94.79;82601.16;5044638;28;20036;-68
2023/08/28 00:38:10;;;;;;;5.03;2.45;;;;;;;-146.27;95.37;82631.28;5046128;28;20060;-68
2023/08/28 00:40:40;;;;;;;2.97;2.40;;;;;;;-146.27;95.05;82631.28;5050436;28;20057;-68
2023/08/28 00:43:05;;;;;;;4.35;2.85;;;;;;;-146.27;95.23;82677.47;5048976;28;20384;-67
2023/08/28 00:45:31;;;;;;;9.25;2.50;;;;;;;-146.27;94.96;82647.34;5050519;28;20101;-68
2023/08/28 00:47:57;;;;;;;6.15;2.45;;;;;;;-146.27;95.13;82613.19;5045266;28;20021;-70
2023/08/28 00:50:23;;;;;;;4.20;2.63;;;;;;;-146.27;95.79;82649.34;5048168;28;20059;-68
2023/08/28 00:52:49;;;;;;;3.00;2.30;;;;;;;-146.27;95.77;82639.31;5048931;28;20016;-69
2023/08/28 00:55:14;;;;;;;2.67;2.08;;;;;;;-146.27;95.54;82629.28;5043918;28;20040;-69
2023/08/28 00:57:40;;;;;;;8.27;3.22;;;;;;;-146.27;95.33;82665.44;5030302;28;20053;-69
2023/08/28 01:00:07;;;;;;;5.70;2.85;;;;;;;-146.27;95.52;82641.31;5048224;28;20111;-69
2023/08/28 01:02:33;;;;;;;8.00;2.70;;;;;;;-146.27;94.50;82653.38;5047592;28;20031;-68
2023/08/28 01:04:58;;;;;;;4.65;2.45;;;;;;;-146.27;94.63;82623.25;5047220;28;20111;-68
2023/08/28 01:07:35;;;;;;;4.82;2.90;;;;;;;-146.27;94.88;82659.41;5044490;28;20060;-68
2023/08/28 01:10:21;;;;;;;2.88;2.33;;;;;;;-146.27;95.23;82661.41;5049343;28;20113;-68
2023/08/28 01:12:59;;;;;;;4.55;2.28;;;;;;;-146.27;94.98;82677.47;5046636;28;20388;-68
2023/08/28 01:15:26;;;;;;;4.47;2.60;;;;;;;-146.27;95.65;82691.53;5046340;28;20492;-68
2023/08/28 01:17:57;;;;;;;6.35;3.22;;;;;;;-146.27;95.94;82707.63;5036018;28;20052;-68
2023/08/28 01:20:24;;;;;;;5.55;2.72;;;;;;;-146.27;95.85;82697.56;5043286;28;20514;-68
2023/08/28 01:23:04;;;;;;;6.22;2.45;;;;;;;-146.27;95.68;82713.66;5043909;28;20040;-69
2023/08/28 01:25:31;;;;;;;4.03;2.80;;;;;;;-146.27;95.42;82725.69;5044780;28;20033;-68
2023/08/28 01:27:59;;;;;;;5.38;2.50;;;;;;;-146.27;95.42;82723.69;5035974;28;20032;-70
2023/08/28 01:30:25;;;;;;;5.28;2.83;;;;;;;-146.27;94.64;82743.78;5042187;28;20028;-70
2023/08/28 01:32:51;;;;;;;4.22;2.72;;;;;;;-146.27;95.40;82757.84;5046384;28;20023;-70
2023/08/28 01:35:28;;;;;;;3.72;2.38;;;;;;;-146.27;95.44;82721.69;5042016;28;20066;-71
2023/08/28 01:37:53;;;;;;;3.05;2.50;;;;;;;-146.27;95.46;82763.88;5048607;28;20108;-69
2023/08/28 01:40:32;;;;;;;5.15;2.60;;;;;;;-146.27;96.00;82759.84;5048869;28;20124;-70
2023/08/28 01:43:00;;;;;;;8.25;3.20;;;;;;;-146.27;95.85;82717.66;5042644;28;20106;-71
2023/08/28 01:45:26;;;;;;;3.72;2.47;;;;;;;-146.27;96.38;82729.72;5047476;28;20116;-70
2023/08/28 01:47:51;;;;;;;5.78;2.55;;;;;;;-146.27;96.84;82755.84;5052584;28;20108;-70
2023/08/28 01:50:17;;;;;;;4.93;2.25;;;;;;;-146.27;96.32;82745.78;5053711;28;20037;-70
2023/08/28 01:52:42;;;;;;;9.18;4.88;;;;;;;-146.27;96.05;82695.56;5044796;28;20025;-70
2023/08/28 01:55:08;;;;;;;6.13;4.05;;;;;;;-146.27;96.44;82745.78;5044933;28;20115;-70
2023/08/28 01:57:33;;;;;;;5.63;4.57;;;;;;;-146.27;95.47;82743.78;5041042;28;20021;-70
2023/08/28 01:59:58;;;;;;;6.00;4.68;;;;;;;-146.27;95.81;82757.84;5048254;28;20452;-70
2023/08/28 02:02:24;;;;;;;5.15;3.65;;;;;;;-146.27;95.26;82749.81;5051274;28;20025;-70
2023/08/28 02:04:49;;;;;;;5.28;3.47;;;;;;;-146.27;95.83;82794.00;5050467;28;20024;-69
2023/08/28 02:07:14;;;;;;;3.30;3.00;;;;;;;-146.27;96.81;82802.03;5050181;28;20036;-69
2023/08/28 02:09:40;;;;;;;4.18;2.72;;;;;;;-146.27;96.05;82777.94;5053118;28;20071;-70
2023/08/28 02:12:06;;;;;;;2.92;2.60;;;;;;;-146.27;96.04;82828.16;5042258;28;20078;-70
2023/08/28 02:14:31;;;;;;;3.72;2.83;;;;;;;-146.27;95.73;82731.72;5051085;28;20049;-70
2023/08/28 02:16:56;;;;;;;4.85;2.42;;;;;;;-146.27;95.14;82737.75;5047186;28;20017;-69
2023/08/28 02:19:22;;;;;;;3.05;2.60;;;;;;;-146.27;94.84;82779.94;5048316;28;20473;-71
2023/08/28 02:21:47;;;;;;;2.92;2.10;;;;;;;-146.27;95.45;82773.91;5046681;28;20720;-70
2023/08/28 02:24:13;;;;;;;2.42;2.22;;;;;;;-146.27;96.01;82806.06;5052376;28;20052;-70
2023/08/28 02:26:38;;;;;;;7.45;2.85;;;;;;;-146.27;95.71;82800.03;5037290;28;21015;-70
2023/08/28 02:29:03;;;;;;;3.72;2.60;;;;;;;-146.27;95.62;82789.97;5056606;28;20033;-70
2023/08/28 02:31:29;;;;;;;2.95;2.55;;;;;;;-146.27;95.63;82794.00;5046787;28;20025;-70
2023/08/28 02:33:54;;;;;;;3.45;2.50;;;;;;;-146.27;96.85;82830.16;5047148;28;20084;-70
2023/08/28 02:36:19;;;;;;;5.07;2.55;;;;;;;-146.27;96.38;82775.91;5046337;28;20156;-70
2023/08/28 02:38:45;;;;;;;4.55;2.40;;;;;;;-146.27;96.39;82798.03;5036321;28;20036;-70
2023/08/28 02:41:10;;;;;;;2.53;2.33;;;;;;;-146.27;96.79;82781.94;5051720;28;20024;-69
2023/08/28 02:43:37;;;;;;;3.70;2.80;;;;;;;-146.27;97.22;82783.97;5039918;28;20481;-69
2023/08/28 02:46:03;;;;;;;3.33;2.55;;;;;;;-146.27;96.67;82794.00;5048850;28;20022;-70
2023/08/28 02:48:28;;;;;;;3.65;2.33;;;;;;;-146.27;97.27;82773.91;5047790;28;20032;-71
2023/08/28 02:50:55;;;;;;;3.20;2.80;;;;;;;-146.27;96.59;82773.91;5046592;28;20036;-69
2023/08/28 02:53:20;;;;;;;7.30;2.83;;;;;;;-146.27;96.55;82737.75;5051482;28;20033;-71
2023/08/28 02:56:22;;;;;;;4.13;2.88;;;;;;;-146.27;97.16;82794.00;5052275;28;20127;-71
2023/08/28 02:58:47;;;;;;;3.65;2.83;;;;;;;-146.27;97.74;82745.78;5049353;28;20454;-70
2023/08/28 03:01:13;;;;;;;3.55;2.90;;;;;;;-146.27;97.52;82781.94;5040936;28;20135;-70
2023/08/28 03:03:38;;;;;;;4.75;2.83;;;;;;;-146.27;97.24;82769.91;5051414;28;20137;-70
2023/08/28 03:06:03;;;;;;;5.88;2.80;;;;;;;-146.27;97.54;82769.91;5050699;28;20440;-70
2023/08/28 03:08:29;;;;;;;4.95;3.20;;;;;;;-146.27;98.84;82703.59;5049782;28;20416;-69
2023/08/28 03:10:55;;;;;;;8.65;3.20;;;;;;;-146.27;97.73;82749.81;5050720;28;20036;-69
2023/08/28 03:13:20;;;;;;;3.13;2.55;;;;;;;-146.27;97.82;82739.75;5036140;28;20045;-69
2023/08/28 03:15:45;;;;;;;2.83;2.28;;;;;;;-146.27;97.30;82739.75;5046877;28;20036;-69
2023/08/28 03:18:11;;;;;;;4.25;2.97;;;;;;;-146.27;97.17;82733.72;5049894;28;20122;-69
2023/08/28 03:20:36;;;;;;;5.93;2.70;;;;;;;-146.27;97.47;82733.72;5048295;28;20029;-69
2023/08/28 03:23:02;;;;;;;3.28;2.65;;;;;;;-146.27;98.03;82717.66;5049856;28;20025;-69
2023/08/28 03:25:28;;;;;;;4.15;2.45;;;;;;;-146.27;98.46;82705.59;5050374;28;20060;-69
2023/08/28 03:27:53;;;;;;;3.97;2.78;;;;;;;-146.27;98.40;82683.50;5050392;28;20048;-68
2023/08/28 03:30:19;;;;;;;3.10;2.80;;;;;;;-146.27;97.80;82701.59;5044736;28;20029;-67
2023/08/28 03:32:44;;;;;;;3.65;2.35;;;;;;;-146.27;97.70;82679.50;5035179;28;20028;-68
2023/08/28 03:35:10;;;;;;;11.25;3.05;;;;;;;-146.27;97.53;82689.53;5044842;28;20032;-68
2023/08/28 03:37:35;;;;;;;2.78;2.50;;;;;;;-146.27;97.73;82701.59;5043894;28;20021;-68
2023/08/28 03:40:01;;;;;;;3.25;2.75;;;;;;;-146.27;97.91;82675.47;5050688;28;20497;-68
2023/08/28 03:42:26;;;;;;;10.73;3.00;;;;;;;-146.27;97.96;82681.50;5046349;28;20469;-67
2023/08/28 03:44:51;;;;;;;4.85;3.17;;;;;;;-146.27;97.64;82709.63;5047891;28;20397;-67
2023/08/28 03:47:17;;;;;;;4.97;2.50;;;;;;;-146.27;97.88;82685.50;5043396;28;20104;-68
2023/08/28 03:49:42;;;;;;;3.75;2.60;;;;;;;-146.27;98.12;82653.38;5051157;28;20481;-70
2023/08/28 03:52:07;;;;;;;2.53;2.13;;;;;;;-146.27;98.27;82665.44;5049885;28;20456;-69
2023/08/28 03:54:33;;;;;;;6.07;2.95;;;;;;;-146.27;97.51;82659.41;5051139;28;20060;-70
2023/08/28 03:56:58;;;;;;;4.32;2.65;;;;;;;-146.27;97.54;82657.41;5048730;28;20098;-70
2023/08/28 03:59:23;;;;;;;6.07;3.10;;;;;;;-146.27;97.32;82633.28;5043442;28;20024;-70
2023/08/28 04:01:50;;;;;;;6.38;2.85;;;;;;;-146.27;97.04;82689.53;5047097;28;20029;-70
2023/08/28 04:04:16;;;;;;;2.85;2.50;;;;;;;-146.27;96.97;82679.50;5051123;28;20508;-70
2023/08/28 04:06:42;;;;;;;3.60;2.97;;;;;;;-146.27;97.00;82645.34;5048320;28;20112;-70
2023/08/28 04:09:07;;;;;;;3.50;2.97;;;;;;;-146.27;97.34;82715.66;5036319;28;20112;-70
2023/08/28 04:11:32;;;;;;;3.08;2.78;;;;;;;-146.27;97.23;82701.59;5040609;28;20615;-70
2023/08/28 04:13:58;;;;;;;5.28;3.33;;;;;;;-146.27;97.61;82737.75;5046639;28;20116;-70
2023/08/28 04:16:23;;;;;;;3.60;2.97;;;;;;;-146.27;97.22;82743.78;5049460;28;20029;-70
2023/08/28 04:18:49;;;;;;;3.28;2.92;;;;;;;-146.27;96.37;82759.84;5048747;28;20508;-70
2023/08/28 04:21:14;;;;;;;7.13;3.10;;;;;;;-146.27;96.34;82719.66;5050073;28;20512;-70
2023/08/28 04:23:40;;;;;;;4.68;3.13;;;;;;;-146.27;96.61;82749.81;5042216;28;20029;-69
2023/08/28 04:26:05;;;;;;;8.05;3.17;;;;;;;-146.27;96.73;82751.81;5038592;28;20024;-69
2023/08/28 04:28:31;;;;;;;4.78;3.42;;;;;;;-146.27;96.79;82727.72;5047387;28;20024;-70
2023/08/28 04:30:56;;;;;;;5.65;3.67;;;;;;;-146.27;97.90;82755.84;5046614;28;20025;-70
2023/08/28 04:33:23;;;;;;;9.32;3.92;;;;;;;-146.27;97.83;82733.72;5047523;28;20139;-70
2023/08/28 04:35:49;;;;;;;3.50;3.20;;;;;;;-146.27;97.29;82753.81;5038095;28;20104;-70
2023/08/28 04:38:14;;;;;;;9.05;3.47;;;;;;;-146.27;97.11;82761.84;5047193;28;20575;-69
2023/08/28 04:40:39;;;;;;;5.82;3.25;;;;;;;-146.27;97.65;82717.66;5047414;28;20083;-69
2023/08/28 04:43:05;;;;;;;4.68;3.88;;;;;;;-146.27;97.69;82761.84;5047052;28;20058;-70
2023/08/28 04:45:30;;;;;;;4.50;3.58;;;;;;;-146.27;98.39;82755.84;5048774;28;20124;-69
2023/08/28 04:47:55;;;;;;;4.90;3.92;;;;;;;-146.27;97.96;82749.81;5048679;28;20056;-70
2023/08/28 04:50:21;;;;;;;5.43;3.50;;;;;;;-146.27;98.71;82727.72;5048423;28;20108;-69
2023/08/28 04:52:46;;;;;;;5.63;4.07;;;;;;;-146.27;99.67;82741.78;5043838;28;20624;-69
2023/08/28 04:55:12;;;;;;;6.72;3.80;;;;;;;-146.27;99.49;82729.72;5039309;28;20444;-69
2023/08/28 04:57:37;;;;;;;5.45;3.85;;;;;;;-146.27;99.59;82711.63;5045162;28;20033;-69
2023/08/28 05:00:03;;;;;;;8.65;4.43;;;;;;;-146.27;99.34;82673.47;5048983;28;20024;-70
2023/08/28 05:02:28;;;;;;;9.18;4.40;;;;;;;-146.27;99.32;82649.34;5047193;28;20040;-72
2023/08/28 05:04:54;;;;;;;5.95;4.25;;;;;;;-146.27;99.52;82649.34;5048644;28;20026;-69
2023/08/28 05:07:19;;;;;;;8.13;5.28;;;;;;;-146.27;99.62;82685.50;5044785;28;20060;-69
2023/08/28 05:09:44;;;;;;;7.53;4.32;;;;;;;-146.27;100.00;82673.47;5049691;28;20511;-69
2023/08/28 05:12:10;;;;;;;6.90;4.20;;;;;;;-146.27;100.00;82665.44;5045690;28;20029;-69
2023/08/28 05:14:35;;;;;;;13.23;5.72;;;;;;;-146.27;100.00;82641.31;5031215;28;20132;-68
2023/08/28 05:17:00;;;;;;;5.20;2.88;;;;;;;-146.27;100.00;82629.28;5048753;28;20079;-69
2023/08/28 05:19:26;;;;;;;4.93;3.30;;;;;;;-146.27;100.00;82633.28;5041668;28;20112;-68
2023/08/28 05:21:51;;;;;;;7.45;4.20;;;;;;;-146.27;100.00;82637.31;5045726;28;20029;-68
2023/08/28 05:24:17;;;;;;;3.58;2.42;;;;;;;-146.27;100.00;82617.22;5046235;28;20025;-69
2023/08/28 05:26:42;;;;;;;5.18;3.42;;;;;;;-146.27;100.00;82617.22;5038390;28;20025;-68
2023/08/28 05:29:07;;;;;;;9.43;4.43;;;;;;;-146.27;100.00;82641.31;5048064;28;20104;-69
2023/08/28 05:31:33;;;;;;;5.07;2.90;;;;;;;-146.27;100.00;82645.34;5042350;28;20027;-68
2023/08/28 05:33:58;;;;;;;8.48;3.35;;;;;;;-146.27;100.00;82595.13;5049348;28;20485;-68
2023/08/28 05:36:23;;;;;;;7.32;4.55;;;;;;;-146.27;100.00;82625.25;5041483;28;20036;-68
2023/08/28 05:38:49;;;;;;;4.22;3.50;;;;;;;-146.27;100.00;82593.09;5045514;28;20455;-68
2023/08/28 05:41:14;;;;;;;5.72;3.67;;;;;;;-146.27;100.00;82619.22;5048523;28;20435;-68
2023/08/28 05:43:40;;;;;;;4.38;3.60;;;;;;;-146.27;100.00;82597.13;5048933;28;20025;-68
2023/08/28 05:46:06;;;;;;;4.57;3.55;;;;;;;-146.27;100.00;82591.09;5042186;28;20534;-68
2023/08/28 05:48:31;;;;;;;8.63;4.25;;;;;;;-146.27;100.00;82583.06;5033825;28;20385;-68
2023/08/28 05:50:56;;;;;;;7.75;4.63;;;;;;;-146.27;100.00;82613.19;5044146;28;20024;-72
2023/08/28 05:53:22;;;;;;;6.13;4.22;;;;;;;-146.27;100.00;82581.06;5049253;28;20029;-72
2023/08/28 05:55:47;;;;;;;7.32;4.22;;;;;;;-146.27;100.00;82597.13;5047246;28;20040;-73
2023/08/28 05:58:13;;;;;;;7.78;4.63;;;;;;;-146.27;100.00;82589.09;5038811;28;20029;-73
2023/08/28 06:00:38;;;;;;;8.00;4.43;;;;;;;-146.27;100.00;82583.06;5049751;28;20104;-72
2023/08/28 06:03:04;;;;;;;5.13;4.57;;;;;;;-146.27;100.00;82585.06;5042884;28;20039;-72
2023/08/28 06:05:30;;;;;;;5.28;4.50;;;;;;;-146.27;100.00;82560.97;5050080;28;20025;-73
2023/08/28 06:07:56;;;;;;;7.40;4.97;;;;;;;-146.27;100.00;82516.78;5048470;28;20085;-74
2023/08/28 06:10:22;;;;;;;8.65;5.18;;;;;;;-146.27;100.00;82506.72;5052698;28;20033;-72
2023/08/28 06:12:49;;;;;;;9.10;5.43;;;;;;;-146.27;100.00;82504.72;5046738;28;20098;-72
2023/08/28 06:15:18;;;;;;;9.82;5.82;;;;;;;-146.27;100.00;82476.59;5042317;28;20035;-70
2023/08/28 06:17:45;;;;;;;11.52;5.85;;;;;;;-146.27;100.00;82528.81;5044295;28;20025;-72
2023/08/28 06:20:11;;;;;;;9.30;6.22;;;;;;;-146.27;100.00;82512.75;5048325;28;20033;-71
2023/08/28 06:22:37;;;;;;;10.80;6.20;;;;;;;-146.27;100.00;82496.69;5043065;28;20421;-73
2023/08/28 06:25:03;;;;;;;8.55;5.78;;;;;;;-146.27;100.00;82416.31;5039742;28;20021;-72
2023/08/28 06:27:28;;;;;;;8.63;5.60;;;;;;;-146.27;100.00;82480.59;5046687;28;20020;-73
2023/08/28 06:29:54;;;;;;;7.38;6.13;;;;;;;-146.27;100.00;82454.50;5053388;28;20063;-77
2023/08/28 06:32:19;;;;;;;11.90;5.85;;;;;;;-146.27;100.00;82464.53;5047474;28;20081;-75
2023/08/28 06:34:45;;;;;;;8.88;5.47;;;;;;;-146.27;100.00;82468.56;5040981;28;20481;-73
2023/08/28 06:37:10;;;;;;;11.40;6.07;;;;;;;-146.27;100.00;82460.53;5046960;28;20040;-72
2023/08/28 06:39:35;;;;;;;7.63;6.20;;;;;;;-146.27;100.00;82518.78;5033094;28;20028;-73
2023/08/28 06:42:01;;;;;;;10.38;5.82;;;;;;;-146.27;100.00;82480.59;5043238;28;20013;-72
2023/08/28 06:44:27;;;;;;;7.32;5.95;;;;;;;-146.27;100.00;82488.66;5038159;28;20388;-72
2023/08/28 06:46:52;;;;;;;8.27;5.85;;;;;;;-146.27;100.00;82500.69;5052396;28;20441;-72
2023/08/28 06:49:17;;;;;;;11.07;7.05;;;;;;;-146.27;100.00;82426.38;5044341;28;20025;-72
2023/08/28 06:51:43;;;;;;;8.15;6.63;;;;;;;-146.27;100.00;82460.53;5042762;28;20287;-72
2023/08/28 06:54:08;;;;;;;15.57;7.35;;;;;;;-146.27;100.00;82412.31;5050899;28;20102;-70
2023/08/28 06:56:34;;;;;;;11.00;7.95;;;;;;;-146.27;100.00;82408.28;5052445;28;20114;-72
2023/08/28 06:59:00;;;;;;;14.80;7.97;;;;;;;-146.27;100.00;82380.16;5052161;28;20033;-72
2023/08/28 07:01:25;;;;;;;11.13;7.32;;;;;;;-146.27;100.00;82372.13;5043999;28;20120;-71
2023/08/28 07:03:50;;;;;;;11.13;7.38;;;;;;;-146.27;100.00;82376.16;5047652;28;20031;-71
2023/08/28 07:06:16;;;;;;;10.20;7.85;;;;;;;-146.27;100.00;82319.91;5052413;28;20029;-70
2023/08/28 07:08:41;;;;;;;12.32;6.75;;;;;;;-146.27;100.00;82337.97;5052022;28;20110;-70
2023/08/28 07:11:07;;;;;;;11.18;6.93;;;;;;;-146.27;100.00;82315.88;5047634;28;20103;-70
2023/08/28 07:13:33;;;;;;;10.68;6.68;;;;;;;-146.27;100.00;82311.88;5041966;28;20179;-72
2023/08/28 07:16:01;;;;;;;7.38;5.03;;;;;;;-146.27;100.00;82281.75;5051795;28;20112;-72
2023/08/28 07:18:27;;;;;;;6.10;4.43;;;;;;;-146.27;100.00;82271.69;5047061;28;20481;-71
2023/08/28 07:20:53;;;;;;;5.65;2.83;;;;;;;-146.27;100.00;82267.69;5047849;28;20021;-71
2023/08/28 07:23:19;;;;;;;3.47;2.65;;;;;;;-146.27;100.00;82271.69;5053288;28;20039;-71
2023/08/28 07:25:45;;;;;;;3.58;2.40;;;;;;;-146.27;100.00;82237.53;5060983;28;20024;-71
2023/08/28 07:28:11;;;;;;;3.22;2.25;;;;;;;-146.27;100.00;82253.63;5049161;28;20040;-71
2023/08/28 07:30:36;;;;;;;3.30;2.10;;;;;;;-146.27;100.00;82205.41;5057799;28;20050;-71
2023/08/28 07:33:02;;;;;;;3.92;2.40;;;;;;;-146.27;100.00;82209.44;5071780;28;20025;-71
2023/08/28 07:35:33;;;;;;;3.53;2.53;;;;;;;-146.27;100.00;82175.28;5059739;28;20112;-71
2023/08/28 07:38:01;;;;;;;2.90;2.50;;;;;;;-146.27;100.00;82143.13;5038827;28;20037;-69
2023/08/28 07:40:27;;;;;;;3.38;2.20;;;;;;;-146.27;100.00;82153.19;5036290;28;20227;-70
2023/08/28 07:42:52;;;;;;;4.75;2.47;;;;;;;-146.27;100.00;82127.06;5029378;28;20017;-71
2023/08/28 07:45:17;;;;;;;3.10;1.98;;;;;;;-146.27;100.00;82078.84;5024013;28;20053;-70
2023/08/28 07:47:43;;;;;;;4.47;1.77;;;;;;;-146.27;100.00;82123.06;5048603;28;20075;-69
2023/08/28 07:50:08;;;;;;;7.22;3.25;;;;;;;-146.27;100.00;82080.88;5048700;28;20025;-71
2023/08/28 07:52:34;;;;;;;3.40;3.10;;;;;;;-146.27;100.00;82050.75;5048814;28;20102;-70
2023/08/28 07:54:59;;;;;;;3.08;2.55;;;;;;;-146.27;100.00;82038.69;5049458;28;20027;-70
2023/08/28 07:57:24;;;;;;;4.18;1.60;;;;;;;-146.27;100.00;82046.72;5043505;28;20067;-71
2023/08/28 07:59:50;;;;;;;2.88;1.20;;;;;;;-146.27;100.00;82066.81;5050523;28;20024;-71
2023/08/28 08:02:15;;;;;;;3.63;1.80;;;;;;;-146.27;100.00;82050.75;5050596;28;20032;-69
2023/08/28 08:04:41;;;;;;;4.25;1.40;;;;;;;-146.27;100.00;82119.03;5049337;28;20055;-70
2023/08/28 08:07:06;;;;;;;4.43;1.30;;;;;;;-146.27;99.95;82113.00;5044835;28;20110;-69
2023/08/28 08:09:32;;;;;;;3.47;1.48;;;;;;;-146.27;99.48;82131.09;5036997;28;20062;-70
2023/08/28 08:11:57;;;;;;;1.27;1.00;;;;;;;-146.27;99.51;82102.97;5049324;28;20037;-70
2023/08/28 08:14:23;;;;;;;2.25;1.02;;;;;;;-146.27;99.13;82090.91;5037849;28;20500;-71
2023/08/28 08:16:48;;;;;;;1.33;1.15;;;;;;;-146.27;99.14;82117.03;5048102;28;20053;-71
2023/08/28 08:19:13;;;;;;;3.38;1.52;;;;;;;-146.27;99.15;82213.44;5049572;28;20397;-72
2023/08/28 08:21:39;;;;;;;3.08;1.10;;;;;;;-146.27;98.37;82171.25;5048861;28;20035;-71
2023/08/28 08:24:04;;;;;;;1.92;0.90;;;;;;;-146.27;98.01;82165.22;5048406;28;20534;-71
2023/08/28 08:26:30;;;;;;;1.23;1.13;;;;;;;-146.27;98.37;82131.09;5044910;28;20029;-71
2023/08/28 08:28:55;;;;;;;2.72;1.17;;;;;;;-146.27;98.81;82135.09;5047246;28;20107;-71
2023/08/28 08:31:21;;;;;;;1.73;1.55;;;;;;;-146.27;98.72;82149.16;5043415;28;20033;-71
2023/08/28 08:33:46;;;;;;;2.45;1.70;;;;;;;-146.27;98.60;82109.00;5033971;28;20025;-70
2023/08/28 08:36:14;;;;;;;3.17;1.20;;;;;;;-146.27;98.38;82094.94;5037446;28;20108;-71
2023/08/28 08:38:40;;;;;;;1.48;1.13;;;;;;;-146.27;97.74;82070.81;5045610;28;20378;-72
2023/08/28 08:41:07;;;;;;;6.40;1.20;;;;;;;-146.27;97.51;82058.78;5042521;28;20094;-72
2023/08/28 08:43:32;;;;;;;4.05;1.10;;;;;;;-146.27;96.16;82100.97;5037268;28;20062;-72
2023/08/28 08:46:04;;;;;;;2.10;1.27;;;;;;;-146.27;96.77;82050.75;5033964;28;20010;-73
2023/08/28 08:48:34;;;;;;;6.60;1.08;;;;;;;-146.27;96.66;82028.66;5046601;28;20039;-74
2023/08/28 08:51:04;;;;;;;4.53;0.90;;;;;;;-146.27;96.31;82036.69;5049114;28;20025;-72
2023/08/28 08:53:53;;;;;;;3.10;0.90;;;;;;;-146.27;93.53;82034.66;5045193;28;20032;-73
2023/08/28 08:56:21;;;;;;;0.95;0.88;;;;;;;-146.27;94.57;81978.44;5047783;28;20035;-72
2023/08/28 08:58:49;;;;;;;3.92;0.93;;;;;;;-146.27;94.70;81968.38;5045432;28;20028;-72
2023/08/28 09:01:15;;;;;;;4.30;1.17;;;;;;;-146.27;93.04;81930.22;5045618;28;20029;-72
2023/08/28 09:03:43;;;;;;;0.70;0.70;;;;;;;-146.27;92.12;81922.19;5035890;28;20477;-72
2023/08/28 09:06:09;;;;;;;4.03;0.90;;;;;;;-146.27;91.10;81906.13;5053863;28;20092;-71
2023/08/28 09:08:36;;;;;;;5.90;1.00;;;;;;;-146.27;90.28;81938.25;5048404;28;20032;-72
2023/08/28 09:11:01;;;;;;;4.28;1.00;;;;;;;-146.27;91.02;81841.84;5049896;28;20079;-72
2023/08/28 09:13:27;;;;;;;1.70;0.80;;;;;;;-146.27;90.61;81781.59;5040795;28;20504;-72
2023/08/28 09:15:53;;;;;;;1.95;0.80;;;;;;;-146.27;89.84;81785.59;5043149;28;20451;-72
2023/08/28 09:18:20;;;;;;;2.05;0.80;;;;;;;-146.27;91.20;81765.53;5047340;28;20025;-72
2023/08/28 09:21:13;;;;;;;3.00;0.90;;;;;;;-146.27;91.01;81791.63;5057762;28;20076;-72
2023/08/28 09:23:43;;;;;;;2.67;0.82;;;;;;;-146.27;90.51;81793.66;5045384;28;20025;-72
2023/08/28 09:26:22;;;;;;;3.05;1.70;;;;;;;-146.27;93.03;81781.59;5049309;28;20052;-72
2023/08/28 09:29:19;;;;;;;3.35;1.13;;;;;;;-146.27;92.15;81815.72;5047627;28;20024;-72
2023/08/28 09:31:46;;;;;;;2.92;0.95;;;;;;;-146.27;91.99;81751.47;5040045;28;20040;-73
2023/08/28 09:34:12;;;;;;;1.38;0.88;;;;;;;-146.27;90.98;81713.31;5047352;28;20182;-72
2023/08/28 09:36:40;;;;;;;2.42;0.90;;;;;;;-146.27;90.77;81745.44;5049106;28;20108;-73
2023/08/28 09:39:06;;;;;;;1.25;0.75;;;;;;;-146.27;90.40;81719.31;5054083;28;20052;-74
2023/08/28 09:41:48;;;;;;;3.03;0.70;;;;;;;-146.27;90.24;81699.25;5047862;28;20119;-73
2023/08/28 09:44:19;;;;;;;2.30;0.73;;;;;;;-146.27;89.60;81739.41;5053316;28;20025;-73
2023/08/28 09:46:46;;;;;;;3.65;0.80;;;;;;;-146.27;89.84;81773.56;5045922;28;20489;-73
2023/08/28 09:49:13;;;;;;;2.70;0.80;;;;;;;-146.27;88.70;81807.69;5050498;28;20021;-73
2023/08/28 09:51:50;;;;;;;3.03;0.90;;;;;;;-146.27;88.63;81799.66;5052546;28;20431;-73
2023/08/28 09:54:16;;;;;;;1.48;0.65;;;;;;;-146.27;88.48;81789.63;5042769;28;20099;-74
2023/08/28 09:56:42;;;;;;;0.93;0.70;;;;;;;-146.27;87.89;81805.69;5046444;28;20553;-73
2023/08/28 09:59:10;;;;;;;0.50;0.50;;;;;;;-146.27;89.59;81729.38;5049060;28;20064;-72
2023/08/28 10:01:37;;;;;;;1.13;0.75;;;;;;;-146.27;90.16;81689.19;5049127;28;20016;-72
2023/08/28 10:04:10;;;;;;;3.72;0.63;;;;;;;-146.27;86.68;81510.44;5046638;28;20028;-73
2023/08/28 10:06:38;;;;;;;1.10;0.70;;;;;;;-146.27;87.94;81470.28;5046316;28;20485;-72
2023/08/28 10:09:10;;;;;;;4.05;0.73;;;;;;;-146.27;85.99;81406.03;5044592;28;20040;-72
2023/08/28 10:11:38;;;;;;;0.57;0.55;;;;;;;-146.27;85.97;81287.53;5036813;28;20025;-72
2023/08/28 10:14:05;;;;;;;1.25;0.60;;;;;;;-146.27;84.58;81211.22;5052918;28;20071;-72
2023/08/28 10:16:41;;;;;;;2.70;0.60;;;;;;;-146.27;78.49;81233.31;5050501;28;20032;-72
2023/08/28 10:19:21;;;;;;;2.42;0.60;;;;;;;-146.27;76.94;81259.41;5053000;28;20056;-73
2023/08/28 10:21:48;;;;;;;2.15;0.55;;;;;;;-146.27;74.91;81343.75;5050865;28;20028;-72
2023/08/28 10:24:16;;;;;;;2.75;0.70;;;;;;;-146.27;75.57;81410.03;5053136;28;20060;-72
2023/08/28 10:26:43;;;;;;;4.63;0.70;;;;;;;-146.27;76.29;81432.13;5044363;28;20048;-73
2023/08/28 10:29:10;;;;;;;0.60;0.55;;;;;;;-146.27;77.08;81488.38;5032483;28;20041;-73
2023/08/28 10:31:37;;;;;;;2.25;0.60;;;;;;;-146.27;78.47;81488.38;5033440;28;20052;-74
2023/08/28 10:34:05;;;;;;;2.97;0.63;;;;;;;-146.27;81.24;81452.22;5032975;28;20052;-73
2023/08/28 10:36:31;;;;;;;1.00;0.65;;;;;;;-146.27;80.52;81343.75;5032636;28;20044;-74
2023/08/28 10:39:02;;;;;;;1.25;0.68;;;;;;;-146.27;78.26;81209.22;5033069;28;20025;-73
2023/08/28 10:41:29;;;;;;;1.75;0.63;;;;;;;-146.27;76.91;81064.63;5032841;28;20486;-73
2023/08/28 10:43:57;;;;;;;2.63;0.60;;;;;;;-146.27;78.82;80936.09;5032640;28;20368;-73
2023/08/28 10:46:27;;;;;;;0.75;0.40;;;;;;;-146.27;78.68;80795.53;5034324;28;20108;-74
2023/08/28 10:48:57;;;;;;;0.82;0.47;;;;;;;-146.27;75.97;80725.25;5039065;28;20524;-73
2023/08/28 10:51:30;;;;;;;0.93;0.50;;;;;;;-146.27;72.03;80648.97;5061726;28;20116;-73
2023/08/28 10:53:59;;;;;;;0.80;0.60;;;;;;;-146.27;70.32;80612.81;5052723;28;20025;-73
2023/08/28 10:56:29;;;;;;;1.38;0.57;;;;;;;-146.27;67.58;80572.66;5051224;28;20029;-73
2023/08/28 10:59:24;;;;;;;2.00;0.60;;;;;;;-146.27;70.92;80594.75;5052591;28;20067;-73
2023/08/28 11:02:02;;;;;;;3.72;1.15;;;;;;;-146.27;71.88;80697.16;5040585;28;20033;-74
2023/08/28 11:04:35;;;;;;;1.15;0.40;;;;;;;-146.27;71.44;80709.19;5032480;28;20025;-74
2023/08/28 11:07:02;;;;;;;2.05;0.60;;;;;;;-146.27;72.17;80789.50;5037399;28;20079;-73
2023/08/28 11:09:27;;;;;;;2.10;0.95;;;;;;;-146.27;67.31;80857.78;5052502;28;20485;-72
2023/08/28 11:12:02;;;;;;;1.63;0.70;;;;;;;-146.27;72.50;80825.66;5051467;28;20187;-74
2023/08/28 11:14:34;;;;;;;1.08;0.65;;;;;;;-146.27;66.84;80901.97;5049031;28;20053;-73